McAdoo, Texas
Current Conditions -  °F | °C
As of 11:53 PM on Thursday 30 Oct 2014 (Local Time) from KLBB Reporting Station
Clear Clear  
Wind Chill:   Ceiling: Unl
Heat Index:   Visibility: 10mi
Dew Point:   Wind: 10mph
Humidity: 59%   Direction: 40°NE
Pressure: 30.32"   Gusts: NA
Location:  33.73°N, 101.01°W
Report Text: KLBB 310453Z 04009KT 10SM CLR 08/01 A3032 RMK AO2 SLP242 T00830006
Loading
Personal Weather Stations






























Interactive Weather Map
Tropical Storm Tracking
New forecast layout! Learn more

10-Day Weather Forecast

Advertisements
Track Severe Weather on mobile